createdAt,value
2023-06-11T00:00:10.596Z,56.00
2023-06-11T00:02:43.013Z,56.20
2023-06-11T00:05:12.143Z,56.20
2023-06-11T00:07:42.074Z,56.20
2023-06-11T00:10:10.980Z,56.60
2023-06-11T00:12:39.149Z,56.60
2023-06-11T00:15:08.647Z,56.70
2023-06-11T00:17:38.142Z,56.80
2023-06-11T00:20:12.692Z,57.00
2023-06-11T00:22:43.472Z,57.20
2023-06-11T00:25:13.051Z,57.40
2023-06-11T00:27:41.517Z,57.40
2023-06-11T00:30:09.981Z,57.50
2023-06-11T00:32:38.202Z,57.60
2023-06-11T00:35:10.245Z,57.70
2023-06-11T00:37:39.192Z,57.90
2023-06-11T00:40:10.839Z,58.50
2023-06-11T00:42:39.312Z,58.30
2023-06-11T00:45:09.936Z,58.20
2023-06-11T00:47:40.352Z,58.30
2023-06-11T00:50:10.329Z,58.30
2023-06-11T00:52:38.454Z,58.50
2023-06-11T00:55:09.439Z,58.60
2023-06-11T00:57:41.436Z,58.50
2023-06-11T01:00:13.661Z,58.50
2023-06-11T01:02:48.609Z,58.60
2023-06-11T01:05:19.278Z,58.80
2023-06-11T01:07:51.670Z,58.60
2023-06-11T01:10:22.518Z,58.80
2023-06-11T01:12:50.954Z,58.90
2023-06-11T01:15:19.070Z,58.90
2023-06-11T01:17:53.911Z,58.90
2023-06-11T01:20:35.912Z,59.30
2023-06-11T01:23:21.863Z,59.40
2023-06-11T01:26:07.946Z,59.60
2023-06-11T01:28:39.467Z,59.70
2023-06-11T01:31:13.555Z,59.50
2023-06-11T01:33:42.165Z,59.70
2023-06-11T01:36:11.924Z,59.50
2023-06-11T01:38:43.760Z,59.50
2023-06-11T01:41:13.904Z,59.70
2023-06-11T01:43:43.420Z,59.80
2023-06-11T01:46:11.657Z,59.80
2023-06-11T01:48:39.795Z,59.70
2023-06-11T01:51:08.179Z,59.60
2023-06-11T01:53:36.526Z,59.70
2023-06-11T01:56:04.748Z,59.80
2023-06-11T01:58:34.056Z,60.00
2023-06-11T02:01:03.646Z,60.20
2023-06-11T02:03:31.938Z,60.50
2023-06-11T02:06:00.171Z,60.50
2023-06-11T02:08:28.406Z,60.50
2023-06-11T02:10:56.793Z,60.60
2023-06-11T02:13:26.752Z,60.70
2023-06-11T02:15:54.878Z,60.80
2023-06-11T02:18:24.349Z,60.90
2023-06-11T02:20:52.447Z,61.30
2023-06-11T02:23:20.833Z,61.40
2023-06-11T02:25:48.931Z,61.60
2023-06-11T02:28:18.315Z,61.80
2023-06-11T02:30:46.656Z,62.20
2023-06-11T02:33:14.921Z,62.40
2023-06-11T02:35:44.608Z,62.70
2023-06-11T02:38:12.737Z,63.20
2023-06-11T02:40:40.892Z,63.10
2023-06-11T02:43:08.976Z,63.30
2023-06-11T02:45:37.215Z,63.50
2023-06-11T02:48:05.682Z,63.60
2023-06-11T02:50:33.803Z,63.70
2023-06-11T02:53:03.332Z,63.90
2023-06-11T02:55:31.470Z,64.10
2023-06-11T02:57:59.601Z,64.10
2023-06-11T03:00:27.883Z,64.00
2023-06-11T03:02:56.013Z,64.10
2023-06-11T03:05:24.190Z,64.10
2023-06-11T03:07:52.319Z,64.10
2023-06-11T03:10:21.777Z,64.10
2023-06-11T03:12:49.927Z,64.20
2023-06-11T03:15:18.030Z,64.10
2023-06-11T03:17:46.250Z,64.20
2023-06-11T03:20:14.606Z,64.50
2023-06-11T03:22:42.803Z,64.70
2023-06-11T03:25:11.180Z,65.00
2023-06-11T03:27:40.858Z,65.20
2023-06-11T03:30:09.971Z,65.50
2023-06-11T03:32:38.146Z,65.80
2023-06-11T03:35:06.759Z,65.90
2023-06-11T03:37:34.884Z,66.20
2023-06-11T03:40:03.101Z,66.40
2023-06-11T03:42:31.250Z,66.40
2023-06-11T03:45:00.707Z,66.50
2023-06-11T03:47:28.850Z,66.70
2023-06-11T03:49:57.272Z,66.50
2023-06-11T03:52:25.497Z,66.60
2023-06-11T03:54:53.575Z,66.80
2023-06-11T03:57:21.745Z,66.80
2023-06-11T03:59:49.915Z,66.80
2023-06-11T04:02:19.491Z,66.90
2023-06-11T04:04:47.815Z,67.20
2023-06-11T04:07:15.966Z,66.90
2023-06-11T04:09:44.098Z,66.80
2023-06-11T04:12:13.030Z,66.70
2023-06-11T04:14:41.411Z,66.70
2023-06-11T04:17:10.234Z,66.60
2023-06-11T04:19:40.438Z,66.50
2023-06-11T04:22:09.111Z,66.60
2023-06-11T04:24:37.236Z,66.30
2023-06-11T04:27:08.119Z,66.30
2023-06-11T04:29:36.302Z,66.10
2023-06-11T04:32:04.685Z,65.90
2023-06-11T04:34:36.199Z,65.90
2023-06-11T04:37:06.555Z,65.80
2023-06-11T04:39:34.691Z,65.90
2023-06-11T04:42:03.331Z,65.70
2023-06-11T04:44:33.155Z,65.70
2023-06-11T04:47:02.411Z,65.60
2023-06-11T04:49:30.716Z,65.50
2023-06-11T04:51:59.265Z,65.60
2023-06-11T04:54:29.345Z,65.50
2023-06-11T04:56:57.474Z,65.80
2023-06-11T04:59:25.645Z,65.60
2023-06-11T05:01:55.033Z,65.50
2023-06-11T05:04:23.820Z,65.40
2023-06-11T05:06:53.869Z,65.30
2023-06-11T05:09:21.981Z,65.40
2023-06-11T05:11:51.495Z,65.10
2023-06-11T05:14:19.643Z,65.10
2023-06-11T05:16:47.869Z,64.90
2023-06-11T05:19:16.032Z,64.70
2023-06-11T05:21:44.142Z,64.70
2023-06-11T05:24:20.427Z,64.50
2023-06-11T05:26:49.106Z,64.40
2023-06-11T05:29:18.590Z,64.20
2023-06-11T05:31:46.699Z,63.90
2023-06-11T05:34:14.817Z,63.80
2023-06-11T05:36:43.346Z,63.70
2023-06-11T05:39:11.836Z,63.60
2023-06-11T05:41:39.988Z,63.40
2023-06-11T05:44:08.110Z,63.20
2023-06-11T05:46:37.745Z,63.30
2023-06-11T05:49:06.985Z,63.00
2023-06-11T05:51:35.121Z,63.20
2023-06-11T05:54:04.213Z,62.80
2023-06-11T05:56:32.512Z,63.50
2023-06-11T05:59:00.656Z,62.80
2023-06-11T06:01:29.728Z,62.40
2023-06-11T06:03:59.408Z,62.00
2023-06-11T06:06:27.991Z,62.00
2023-06-11T06:08:56.652Z,62.50
2023-06-11T06:11:24.770Z,61.60
2023-06-11T06:13:52.879Z,61.30
2023-06-11T06:16:21.053Z,61.20
2023-06-11T06:18:49.152Z,61.10
2023-06-11T06:21:18.688Z,61.20
2023-06-11T06:23:46.798Z,60.80
2023-06-11T06:26:14.961Z,60.80
2023-06-11T06:28:43.056Z,60.90
2023-06-11T06:31:13.708Z,60.80
2023-06-11T06:33:41.934Z,60.70
2023-06-11T06:36:10.044Z,60.40
2023-06-11T06:38:39.594Z,60.30
2023-06-11T06:41:07.706Z,59.70
2023-06-11T06:43:36.049Z,60.00
2023-06-11T06:46:04.191Z,59.60
2023-06-11T06:48:33.604Z,59.90
2023-06-11T06:51:02.225Z,59.90
2023-06-11T06:53:30.334Z,59.20
2023-06-11T06:56:01.340Z,59.10
2023-06-11T06:58:29.716Z,59.00
2023-06-11T07:00:58.514Z,58.90
2023-06-11T07:03:26.853Z,58.80
2023-06-11T07:05:55.169Z,58.40
2023-06-11T07:08:23.626Z,58.30
2023-06-11T07:10:54.508Z,58.40
2023-06-11T07:13:24.460Z,58.00
2023-06-11T07:15:53.219Z,57.50
2023-06-11T07:18:21.448Z,57.70
2023-06-11T07:20:50.151Z,57.70
2023-06-11T07:23:20.327Z,57.40
2023-06-11T07:25:51.298Z,57.10
2023-06-11T07:28:19.554Z,57.00
2023-06-11T07:30:49.530Z,56.60
2023-06-11T07:33:18.652Z,56.50
2023-06-11T07:35:50.251Z,56.60
2023-06-11T07:38:18.952Z,56.50
2023-06-11T07:40:47.053Z,56.40
2023-06-11T07:43:15.191Z,55.90
2023-06-11T07:45:44.884Z,56.10
2023-06-11T07:48:14.391Z,56.10
2023-06-11T07:50:42.491Z,55.80
2023-06-11T07:53:13.964Z,55.60
2023-06-11T07:55:42.763Z,55.30
2023-06-11T07:58:10.941Z,54.10
2023-06-11T08:00:39.159Z,54.30
2023-06-11T08:03:07.312Z,53.80
2023-06-11T08:05:37.070Z,53.10
2023-06-11T08:08:06.104Z,52.10
2023-06-11T08:10:34.799Z,51.70
2023-06-11T08:13:02.942Z,50.90
2023-06-11T08:15:31.620Z,51.00
2023-06-11T08:17:59.818Z,50.90
2023-06-11T08:20:28.114Z,50.40
2023-06-11T08:22:57.867Z,50.20
2023-06-11T08:25:25.954Z,49.70
2023-06-11T08:27:54.124Z,48.90
2023-06-11T08:30:22.332Z,48.90
2023-06-11T08:32:50.505Z,48.80
2023-06-11T08:35:18.674Z,48.80
2023-06-11T08:37:47.812Z,48.50
2023-06-11T08:40:17.701Z,48.00
2023-06-11T08:42:48.114Z,47.50
2023-06-11T08:45:16.386Z,47.10
2023-06-11T08:47:50.730Z,46.70
2023-06-11T08:50:22.091Z,46.20
2023-06-11T08:52:53.028Z,46.50
2023-06-11T08:55:22.735Z,46.10
2023-06-11T08:57:52.485Z,44.90
2023-06-11T09:00:22.306Z,44.40
2023-06-11T09:02:50.991Z,44.30
2023-06-11T09:05:19.572Z,44.20
2023-06-11T09:07:51.584Z,44.00
2023-06-11T09:10:20.692Z,43.10
2023-06-11T09:12:50.461Z,43.60
2023-06-11T09:15:19.937Z,42.20
2023-06-11T09:17:48.608Z,42.80
2023-06-11T09:20:17.922Z,41.70
2023-06-11T09:22:46.742Z,41.20
2023-06-11T09:25:18.082Z,40.50
2023-06-11T09:27:47.949Z,40.20
2023-06-11T09:30:19.493Z,40.30
2023-06-11T09:32:49.575Z,39.60
2023-06-11T09:35:21.720Z,39.50
2023-06-11T09:37:53.089Z,39.10
2023-06-11T09:40:24.474Z,38.70
2023-06-11T09:42:53.092Z,38.80
2023-06-11T09:45:24.673Z,38.90
2023-06-11T09:47:53.173Z,38.60
2023-06-11T09:50:22.865Z,38.70
2023-06-11T09:52:53.640Z,38.10
2023-06-11T09:55:27.227Z,37.40
2023-06-11T09:57:56.040Z,36.70
2023-06-11T10:00:25.783Z,36.80
2023-06-11T10:02:53.938Z,36.00
2023-06-11T10:05:22.674Z,35.40
2023-06-11T10:07:55.349Z,35.30
2023-06-11T10:10:26.002Z,34.70
2023-06-11T10:12:55.659Z,34.60
2023-06-11T10:15:26.488Z,34.70
2023-06-11T10:17:55.947Z,34.90
2023-06-11T10:20:29.897Z,34.90
2023-06-11T10:23:08.629Z,34.70
2023-06-11T10:25:38.947Z,34.40
2023-06-11T10:28:07.697Z,34.60
2023-06-11T10:30:37.625Z,34.90
2023-06-11T10:33:05.979Z,35.60
2023-06-11T10:35:34.667Z,35.30
2023-06-11T10:38:07.019Z,35.30
2023-06-11T10:40:36.325Z,34.90
2023-06-11T10:43:06.658Z,35.80
2023-06-11T10:45:38.150Z,35.20
2023-06-11T10:48:07.168Z,35.20
2023-06-11T10:50:36.782Z,35.20
2023-06-11T10:53:10.445Z,34.80
2023-06-11T10:55:44.144Z,35.30
2023-06-11T10:58:20.600Z,34.90
2023-06-11T11:00:53.968Z,35.40
2023-06-11T11:03:25.019Z,35.20
2023-06-11T11:05:53.533Z,34.70
2023-06-11T11:08:24.771Z,34.60
2023-06-11T11:10:57.288Z,34.30
2023-06-11T11:13:25.637Z,34.50
2023-06-11T11:15:55.339Z,34.40
2023-06-11T11:18:24.290Z,34.00
2023-06-11T11:20:54.149Z,34.10
2023-06-11T11:23:22.263Z,34.20
2023-06-11T11:25:53.396Z,34.70
2023-06-11T11:28:21.686Z,34.60
2023-06-11T11:30:51.887Z,34.60
2023-06-11T11:33:22.026Z,34.50
2023-06-11T11:35:52.514Z,35.30
2023-06-11T11:38:21.051Z,34.10
2023-06-11T11:40:56.322Z,33.30
2023-06-11T11:43:24.794Z,33.30
2023-06-11T11:45:52.974Z,33.10
2023-06-11T11:48:22.586Z,33.30
2023-06-11T11:51:07.117Z,33.30
2023-06-11T11:53:35.752Z,32.80
2023-06-11T11:56:07.042Z,32.80
2023-06-11T11:58:39.630Z,32.50
2023-06-11T12:01:10.001Z,33.10
2023-06-11T12:03:39.896Z,32.80
2023-06-11T12:06:09.385Z,32.30
2023-06-11T12:08:38.533Z,33.10
2023-06-11T12:11:08.324Z,32.60
2023-06-11T12:13:37.253Z,32.50
2023-06-11T12:16:05.936Z,32.30
2023-06-11T12:18:34.422Z,32.40
2023-06-11T12:21:04.014Z,32.10
2023-06-11T12:23:32.209Z,31.90
2023-06-11T12:26:01.462Z,31.60
2023-06-11T12:28:29.666Z,31.60
2023-06-11T12:30:58.543Z,31.60
2023-06-11T12:33:26.667Z,31.60
2023-06-11T12:35:54.785Z,31.40
2023-06-11T12:38:24.326Z,31.50
2023-06-11T12:40:53.414Z,30.40
2023-06-11T12:43:22.170Z,29.80
2023-06-11T12:45:50.303Z,29.20
2023-06-11T12:48:18.475Z,29.10
2023-06-11T12:50:46.697Z,28.80
2023-06-11T12:53:14.846Z,29.30
2023-06-11T12:55:44.389Z,29.00
2023-06-11T12:58:12.536Z,29.70
2023-06-11T13:00:40.751Z,29.20
2023-06-11T13:03:09.117Z,29.20
2023-06-11T13:05:37.258Z,29.60
2023-06-11T13:08:06.454Z,29.60
2023-06-11T13:10:34.687Z,29.60
2023-06-11T13:13:04.818Z,29.60
2023-06-11T13:15:33.135Z,29.20
2023-06-11T13:18:01.438Z,29.40
2023-06-11T13:20:30.865Z,29.10
2023-06-11T13:22:59.049Z,28.90
2023-06-11T13:25:27.168Z,29.20
2023-06-11T13:27:55.669Z,29.30
2023-06-11T13:30:25.207Z,28.90
2023-06-11T13:32:53.433Z,28.50
2023-06-11T13:35:21.617Z,28.60
2023-06-11T13:37:49.740Z,28.80
2023-06-11T13:40:19.265Z,28.50
2023-06-11T13:42:47.531Z,28.60
2023-06-11T13:45:15.618Z,28.70
2023-06-11T13:47:45.242Z,28.60
2023-06-11T13:50:13.674Z,28.00
2023-06-11T13:52:42.174Z,28.40
2023-06-11T13:55:11.109Z,29.10
2023-06-11T13:57:39.389Z,28.40
2023-06-11T14:00:09.150Z,28.20
2023-06-11T14:02:37.606Z,27.40
2023-06-11T14:05:07.959Z,27.70
2023-06-11T14:07:36.525Z,27.90
2023-06-11T14:10:06.423Z,28.00
2023-06-11T14:12:34.683Z,28.00
2023-06-11T14:15:02.834Z,28.20
2023-06-11T14:17:31.798Z,27.80
2023-06-11T14:20:00.094Z,27.70
2023-06-11T14:22:29.613Z,28.10
2023-06-11T14:24:57.741Z,27.40
2023-06-11T14:27:25.854Z,27.70
2023-06-11T14:29:54.047Z,27.50
2023-06-11T14:32:22.335Z,27.80
2023-06-11T14:34:50.663Z,27.80
2023-06-11T14:37:18.816Z,28.10
2023-06-11T14:39:48.348Z,27.70
2023-06-11T14:42:16.795Z,27.80
2023-06-11T14:44:44.960Z,27.60
2023-06-11T14:47:13.125Z,27.40
2023-06-11T14:49:41.295Z,27.10
2023-06-11T14:52:10.567Z,27.10
2023-06-11T14:54:39.196Z,27.30
2023-06-11T14:57:16.586Z,27.40
2023-06-11T14:59:45.382Z,27.10
2023-06-11T15:02:15.891Z,27.30
2023-06-11T15:04:44.949Z,27.10
2023-06-11T15:09:46.715Z,27.30
2023-06-11T15:12:16.253Z,27.50
2023-06-11T15:14:44.435Z,27.80
2023-06-11T15:17:12.980Z,27.70
2023-06-11T15:19:43.974Z,27.20
2023-06-11T15:22:12.124Z,27.70
2023-06-11T15:24:40.539Z,27.30
2023-06-11T15:27:08.916Z,27.70
2023-06-11T15:29:38.407Z,27.50
2023-06-11T15:32:09.646Z,27.50
2023-06-11T15:34:37.873Z,27.30
2023-06-11T15:37:06.504Z,27.30
2023-06-11T15:39:34.680Z,27.20
2023-06-11T15:42:03.039Z,27.60
2023-06-11T15:44:32.193Z,27.20
2023-06-11T15:47:01.753Z,27.60
2023-06-11T15:49:29.901Z,27.70
2023-06-11T15:51:58.766Z,27.50
2023-06-11T15:54:26.900Z,27.30
2023-06-11T15:56:55.026Z,27.70
2023-06-11T15:59:23.158Z,27.30
2023-06-11T16:01:51.289Z,27.40
2023-06-11T16:04:21.170Z,27.60
2023-06-11T16:06:49.285Z,27.60
2023-06-11T16:09:17.647Z,27.60
2023-06-11T16:11:45.754Z,27.90
2023-06-11T16:14:16.009Z,27.40
2023-06-11T16:16:44.537Z,27.40
2023-06-11T16:19:12.738Z,27.70
2023-06-11T16:21:42.495Z,27.20
2023-06-11T16:24:10.799Z,27.20
2023-06-11T16:26:39.012Z,27.50
2023-06-11T16:29:07.140Z,27.50
2023-06-11T16:31:35.332Z,27.40
2023-06-11T16:34:04.613Z,27.40
2023-06-11T16:36:32.786Z,27.20
2023-06-11T16:39:21.000Z,27.50
2023-06-11T16:41:51.422Z,27.40
2023-06-11T16:44:19.592Z,27.40
2023-06-11T16:46:47.924Z,27.10
2023-06-11T16:49:16.198Z,27.30
2023-06-11T16:51:44.494Z,27.50
2023-06-11T16:54:17.391Z,27.30
2023-06-11T16:56:46.784Z,27.60
2023-06-11T16:59:14.972Z,27.50
2023-06-11T17:01:43.289Z,27.70
2023-06-11T17:04:11.762Z,27.60
2023-06-11T17:06:40.352Z,27.60
2023-06-11T17:09:08.508Z,27.80
2023-06-11T17:11:38.079Z,27.80
2023-06-11T17:14:06.282Z,28.20
2023-06-11T17:16:34.492Z,27.60
2023-06-11T17:19:04.713Z,27.70
2023-06-11T17:21:33.904Z,27.80
2023-06-11T17:24:02.274Z,28.10
2023-06-11T17:26:30.429Z,28.00
2023-06-11T17:28:59.950Z,27.70
2023-06-11T17:31:28.067Z,28.00
2023-06-11T17:33:56.176Z,27.80
2023-06-11T17:36:24.306Z,27.80
2023-06-11T17:38:52.436Z,27.60
2023-06-11T17:41:20.651Z,27.60
2023-06-11T17:43:49.008Z,27.80
2023-06-11T17:46:18.689Z,28.00
2023-06-11T17:48:47.040Z,28.30
2023-06-11T17:51:15.209Z,28.60
2023-06-11T17:53:43.818Z,28.40
2023-06-11T17:56:12.028Z,28.60
2023-06-11T17:58:42.510Z,28.60
2023-06-11T18:01:10.974Z,28.50
2023-06-11T18:03:40.560Z,28.60
2023-06-11T18:06:08.888Z,28.50
2023-06-11T18:08:37.090Z,28.60
2023-06-11T18:11:05.175Z,28.60
2023-06-11T18:13:33.332Z,28.60
2023-06-11T18:16:01.515Z,28.80
2023-06-11T18:18:30.058Z,28.90
2023-06-11T18:20:59.713Z,28.90
2023-06-11T18:23:27.836Z,29.00
2023-06-11T18:25:56.000Z,29.00
2023-06-11T18:28:26.533Z,29.10
2023-06-11T18:30:56.083Z,28.90
2023-06-11T18:33:24.217Z,28.90
2023-06-11T18:35:57.333Z,29.00
2023-06-11T18:38:26.836Z,29.00
2023-06-11T18:40:55.299Z,29.10
2023-06-11T18:43:23.458Z,29.20
2023-06-11T18:45:51.643Z,29.30
2023-06-11T18:48:19.740Z,29.40
2023-06-11T18:50:47.906Z,29.40
2023-06-11T18:53:16.397Z,29.60
2023-06-11T18:55:45.886Z,29.70
2023-06-11T19:01:06.846Z,29.80
2023-06-11T19:03:39.278Z,30.00
2023-06-11T19:06:08.914Z,30.70
2023-06-11T19:08:37.080Z,30.10
2023-06-11T19:11:06.554Z,30.10
2023-06-11T19:13:34.657Z,30.40
2023-06-11T19:16:02.775Z,30.20
2023-06-11T19:18:30.878Z,30.30
2023-06-11T19:20:59.041Z,30.50
2023-06-11T19:23:28.804Z,30.70
2023-06-11T19:25:57.110Z,30.60
2023-06-11T19:28:26.603Z,30.70
2023-06-11T19:30:54.731Z,30.70
2023-06-11T19:33:22.943Z,30.70
2023-06-11T19:35:51.133Z,30.80
2023-06-11T19:38:19.277Z,30.90
2023-06-11T19:40:47.452Z,30.80
2023-06-11T19:43:15.578Z,30.80
2023-06-11T19:45:45.077Z,31.10
2023-06-11T19:48:13.492Z,30.90
2023-06-11T19:50:41.593Z,30.90
2023-06-11T19:53:09.754Z,30.90
2023-06-11T19:55:37.831Z,30.90
2023-06-11T19:58:06.127Z,30.90
2023-06-11T20:00:34.295Z,30.90
2023-06-11T20:03:03.779Z,31.00
2023-06-11T20:05:33.765Z,31.10
2023-06-11T20:08:02.818Z,31.10
2023-06-11T20:10:36.927Z,31.20
2023-06-11T20:13:05.203Z,31.30
2023-06-11T20:15:33.543Z,31.30
2023-06-11T20:18:03.158Z,31.40
2023-06-11T20:20:31.502Z,31.50
2023-06-11T20:22:59.610Z,31.60
2023-06-11T20:25:28.855Z,31.80
2023-06-11T20:27:57.546Z,31.90
2023-06-11T20:30:25.824Z,32.10
2023-06-11T20:32:54.014Z,32.20
2023-06-11T20:35:23.498Z,32.30
2023-06-11T20:37:51.685Z,32.40
2023-06-11T20:40:19.898Z,32.40
2023-06-11T20:42:48.047Z,32.50
2023-06-11T20:45:16.249Z,32.70
2023-06-11T20:47:44.520Z,33.00
2023-06-11T20:50:12.997Z,33.00
2023-06-11T20:52:42.714Z,33.10
2023-06-11T20:55:11.292Z,33.30
2023-06-11T20:57:39.413Z,33.30
2023-06-11T21:00:10.018Z,33.40
2023-06-11T21:02:38.397Z,33.70
2023-06-11T21:05:06.752Z,33.80
2023-06-11T21:07:34.890Z,34.00
2023-06-11T21:10:04.543Z,34.10
2023-06-11T21:12:32.615Z,34.30
2023-06-11T21:15:00.692Z,34.30
2023-06-11T21:17:28.903Z,34.50
2023-06-11T21:19:57.001Z,34.70
2023-06-11T21:22:25.116Z,34.90
2023-06-11T21:24:53.236Z,34.80
2023-06-11T21:27:22.738Z,35.00
2023-06-11T21:29:50.901Z,35.20
2023-06-11T21:32:19.082Z,35.20
2023-06-11T21:34:47.306Z,35.30
2023-06-11T21:37:15.720Z,35.50
2023-06-11T21:39:43.822Z,35.60
2023-06-11T21:42:11.968Z,35.70
2023-06-11T21:44:41.488Z,35.90
2023-06-11T21:47:11.065Z,36.20
2023-06-11T21:49:39.344Z,36.20
2023-06-11T21:52:09.252Z,36.40
2023-06-11T21:54:37.338Z,36.60
2023-06-11T21:57:06.586Z,36.60
2023-06-11T21:59:34.682Z,36.90
2023-06-11T22:02:04.798Z,37.00
2023-06-11T22:04:33.119Z,37.10
2023-06-11T22:07:01.702Z,37.10
2023-06-11T22:09:30.711Z,37.20
2023-06-11T22:11:59.595Z,37.30
2023-06-11T22:14:28.253Z,37.50
2023-06-11T22:16:58.837Z,37.70
2023-06-11T22:19:29.849Z,38.00
2023-06-11T22:21:58.053Z,38.10
2023-06-11T22:24:26.225Z,38.10
2023-06-11T22:26:54.385Z,38.20
2023-06-11T22:29:22.537Z,38.60
2023-06-11T22:31:50.786Z,38.80
2023-06-11T22:34:18.952Z,38.80
2023-06-11T22:36:48.404Z,38.80
2023-06-11T22:39:16.494Z,39.00
2023-06-11T22:41:44.594Z,39.20
2023-06-11T22:44:12.774Z,39.10
2023-06-11T22:46:40.973Z,39.40
2023-06-11T22:49:10.206Z,39.50
2023-06-11T22:51:38.459Z,39.60
2023-06-11T22:54:09.576Z,39.80
2023-06-11T22:56:37.794Z,40.10
2023-06-11T22:59:07.172Z,40.10
2023-06-11T23:01:37.107Z,40.20
2023-06-11T23:04:05.512Z,40.30
2023-06-11T23:06:33.850Z,41.00
2023-06-11T23:09:01.994Z,40.70
2023-06-11T23:11:31.494Z,40.70
2023-06-11T23:13:59.605Z,41.10
2023-06-11T23:16:28.362Z,41.00
2023-06-11T23:18:57.265Z,41.20
2023-06-11T23:21:25.421Z,41.20
2023-06-11T23:23:53.604Z,41.30
2023-06-11T23:26:22.752Z,41.50
2023-06-11T23:28:52.748Z,41.60
2023-06-11T23:31:21.861Z,41.80
2023-06-11T23:33:50.938Z,41.70
2023-06-11T23:36:19.657Z,42.00
2023-06-11T23:38:49.650Z,42.20
2023-06-11T23:41:17.778Z,42.30
2023-06-11T23:43:46.048Z,42.40
2023-06-11T23:46:15.533Z,42.60
2023-06-11T23:48:43.678Z,42.80
2023-06-11T23:51:12.522Z,42.60
2023-06-11T23:53:40.678Z,43.30
2023-06-11T23:56:08.815Z,42.90
2023-06-11T23:58:36.985Z,43.10
